sensor_id;sensor_type;location;lat;lon;timestamp;P1;durP1;ratioP1;P2;durP2;ratioP2
43160;SDS011;40968;52.342;5.528;2023-03-05T00:00:28;11.32;;;2.20;;
43160;SDS011;40968;52.342;5.528;2023-03-05T00:02:54;5.13;;;1.63;;
43160;SDS011;40968;52.342;5.528;2023-03-05T00:05:21;4.95;;;1.80;;
43160;SDS011;40968;52.342;5.528;2023-03-05T00:07:48;5.97;;;2.50;;
43160;SDS011;40968;52.342;5.528;2023-03-05T00:10:14;14.60;;;2.00;;
43160;SDS011;40968;52.342;5.528;2023-03-05T00:12:41;7.60;;;1.92;;
43160;SDS011;40968;52.342;5.528;2023-03-05T00:15:09;7.13;;;1.80;;
43160;SDS011;40968;52.342;5.528;2023-03-05T00:17:36;7.40;;;1.92;;
43160;SDS011;40968;52.342;5.528;2023-03-05T00:20:03;10.70;;;2.42;;
43160;SDS011;40968;52.342;5.528;2023-03-05T00:22:30;10.40;;;1.85;;
43160;SDS011;40968;52.342;5.528;2023-03-05T00:24:59;8.48;;;1.85;;
43160;SDS011;40968;52.342;5.528;2023-03-05T00:27:25;11.20;;;2.08;;
43160;SDS011;40968;52.342;5.528;2023-03-05T00:29:52;7.68;;;1.77;;
43160;SDS011;40968;52.342;5.528;2023-03-05T00:32:20;6.38;;;1.60;;
43160;SDS011;40968;52.342;5.528;2023-03-05T00:34:46;6.10;;;1.33;;
43160;SDS011;40968;52.342;5.528;2023-03-05T00:37:14;7.82;;;1.70;;
43160;SDS011;40968;52.342;5.528;2023-03-05T00:39:40;4.88;;;1.50;;
43160;SDS011;40968;52.342;5.528;2023-03-05T00:42:07;7.80;;;1.77;;
43160;SDS011;40968;52.342;5.528;2023-03-05T00:44:34;9.73;;;1.50;;
43160;SDS011;40968;52.342;5.528;2023-03-05T00:47:00;9.05;;;1.75;;
43160;SDS011;40968;52.342;5.528;2023-03-05T00:49:28;8.48;;;1.85;;
43160;SDS011;40968;52.342;5.528;2023-03-05T00:51:55;12.10;;;1.80;;
43160;SDS011;40968;52.342;5.528;2023-03-05T00:54:21;4.70;;;1.63;;
43160;SDS011;40968;52.342;5.528;2023-03-05T00:56:48;10.32;;;1.80;;
43160;SDS011;40968;52.342;5.528;2023-03-05T00:59:14;5.25;;;1.83;;
43160;SDS011;40968;52.342;5.528;2023-03-05T01:01:41;8.07;;;1.95;;
43160;SDS011;40968;52.342;5.528;2023-03-05T01:04:08;7.45;;;1.92;;
43160;SDS011;40968;52.342;5.528;2023-03-05T01:06:35;5.90;;;2.08;;
43160;SDS011;40968;52.342;5.528;2023-03-05T01:09:06;9.75;;;1.60;;
43160;SDS011;40968;52.342;5.528;2023-03-05T01:11:33;7.00;;;1.73;;
43160;SDS011;40968;52.342;5.528;2023-03-05T01:13:59;8.50;;;2.35;;
43160;SDS011;40968;52.342;5.528;2023-03-05T01:16:26;12.45;;;2.38;;
43160;SDS011;40968;52.342;5.528;2023-03-05T01:18:53;12.45;;;2.35;;
43160;SDS011;40968;52.342;5.528;2023-03-05T01:21:19;17.17;;;2.60;;
43160;SDS011;40968;52.342;5.528;2023-03-05T01:23:47;6.43;;;2.38;;
43160;SDS011;40968;52.342;5.528;2023-03-05T01:26:14;10.07;;;2.40;;
43160;SDS011;40968;52.342;5.528;2023-03-05T01:28:41;13.27;;;2.25;;
43160;SDS011;40968;52.342;5.528;2023-03-05T01:31:07;11.85;;;2.30;;
43160;SDS011;40968;52.342;5.528;2023-03-05T01:33:35;11.18;;;1.90;;
43160;SDS011;40968;52.342;5.528;2023-03-05T01:36:01;10.40;;;2.63;;
43160;SDS011;40968;52.342;5.528;2023-03-05T01:38:32;20.38;;;3.67;;
43160;SDS011;40968;52.342;5.528;2023-03-05T01:41:00;7.35;;;2.28;;
43160;SDS011;40968;52.342;5.528;2023-03-05T01:43:27;7.82;;;1.98;;
43160;SDS011;40968;52.342;5.528;2023-03-05T01:49:15;10.88;;;3.05;;
43160;SDS011;40968;52.342;5.528;2023-03-05T01:51:53;11.07;;;2.00;;
43160;SDS011;40968;52.342;5.528;2023-03-05T01:54:28;12.43;;;2.60;;
43160;SDS011;40968;52.342;5.528;2023-03-05T01:57:01;14.85;;;2.38;;
43160;SDS011;40968;52.342;5.528;2023-03-05T01:59:34;9.10;;;2.00;;
43160;SDS011;40968;52.342;5.528;2023-03-05T02:02:03;13.48;;;2.13;;
43160;SDS011;40968;52.342;5.528;2023-03-05T02:04:33;8.98;;;2.08;;
43160;SDS011;40968;52.342;5.528;2023-03-05T02:07:04;11.98;;;2.50;;
43160;SDS011;40968;52.342;5.528;2023-03-05T02:09:32;9.25;;;2.70;;
43160;SDS011;40968;52.342;5.528;2023-03-05T02:12:00;10.20;;;2.15;;
43160;SDS011;40968;52.342;5.528;2023-03-05T02:14:26;21.48;;;2.80;;
43160;SDS011;40968;52.342;5.528;2023-03-05T02:16:53;8.95;;;2.00;;
43160;SDS011;40968;52.342;5.528;2023-03-05T02:19:20;15.82;;;2.40;;
43160;SDS011;40968;52.342;5.528;2023-03-05T02:21:48;11.55;;;2.40;;
43160;SDS011;40968;52.342;5.528;2023-03-05T02:24:15;9.25;;;2.33;;
43160;SDS011;40968;52.342;5.528;2023-03-05T02:26:44;6.70;;;1.88;;
43160;SDS011;40968;52.342;5.528;2023-03-05T02:29:13;5.53;;;2.20;;
43160;SDS011;40968;52.342;5.528;2023-03-05T02:34:09;20.58;;;2.88;;
43160;SDS011;40968;52.342;5.528;2023-03-05T02:36:36;9.63;;;2.15;;
43160;SDS011;40968;52.342;5.528;2023-03-05T02:39:04;8.05;;;2.40;;
43160;SDS011;40968;52.342;5.528;2023-03-05T02:41:30;17.60;;;2.42;;
43160;SDS011;40968;52.342;5.528;2023-03-05T02:43:57;8.43;;;2.20;;
43160;SDS011;40968;52.342;5.528;2023-03-05T02:46:23;7.70;;;2.25;;
43160;SDS011;40968;52.342;5.528;2023-03-05T02:48:50;7.70;;;1.85;;
43160;SDS011;40968;52.342;5.528;2023-03-05T02:51:16;9.73;;;2.20;;
43160;SDS011;40968;52.342;5.528;2023-03-05T02:53:43;12.10;;;2.58;;
43160;SDS011;40968;52.342;5.528;2023-03-05T02:56:11;10.23;;;2.17;;
43160;SDS011;40968;52.342;5.528;2023-03-05T02:58:38;7.10;;;2.85;;
43160;SDS011;40968;52.342;5.528;2023-03-05T03:01:04;12.90;;;2.97;;
43160;SDS011;40968;52.342;5.528;2023-03-05T03:03:31;9.68;;;2.00;;
43160;SDS011;40968;52.342;5.528;2023-03-05T03:05:57;9.63;;;1.90;;
43160;SDS011;40968;52.342;5.528;2023-03-05T03:08:24;8.95;;;1.85;;
43160;SDS011;40968;52.342;5.528;2023-03-05T03:10:51;9.80;;;2.40;;
43160;SDS011;40968;52.342;5.528;2023-03-05T03:13:19;7.13;;;2.13;;
43160;SDS011;40968;52.342;5.528;2023-03-05T03:15:45;14.50;;;2.55;;
43160;SDS011;40968;52.342;5.528;2023-03-05T03:18:12;8.77;;;1.98;;
43160;SDS011;40968;52.342;5.528;2023-03-05T03:20:39;7.10;;;2.05;;
43160;SDS011;40968;52.342;5.528;2023-03-05T03:23:06;10.15;;;1.80;;
43160;SDS011;40968;52.342;5.528;2023-03-05T03:25:32;8.25;;;2.00;;
43160;SDS011;40968;52.342;5.528;2023-03-05T03:27:59;11.57;;;1.92;;
43160;SDS011;40968;52.342;5.528;2023-03-05T03:30:27;8.57;;;2.00;;
43160;SDS011;40968;52.342;5.528;2023-03-05T03:32:53;12.15;;;2.03;;
43160;SDS011;40968;52.342;5.528;2023-03-05T03:35:20;12.00;;;2.08;;
43160;SDS011;40968;52.342;5.528;2023-03-05T03:37:47;11.88;;;2.28;;
43160;SDS011;40968;52.342;5.528;2023-03-05T03:40:13;8.23;;;1.80;;
43160;SDS011;40968;52.342;5.528;2023-03-05T03:42:40;7.45;;;1.98;;
43160;SDS011;40968;52.342;5.528;2023-03-05T03:45:07;9.48;;;2.10;;
43160;SDS011;40968;52.342;5.528;2023-03-05T03:47:35;11.38;;;2.15;;
43160;SDS011;40968;52.342;5.528;2023-03-05T03:50:02;12.30;;;2.03;;
43160;SDS011;40968;52.342;5.528;2023-03-05T03:52:30;4.53;;;1.50;;
43160;SDS011;40968;52.342;5.528;2023-03-05T03:54:56;13.55;;;2.22;;
43160;SDS011;40968;52.342;5.528;2023-03-05T03:57:25;12.65;;;2.30;;
43160;SDS011;40968;52.342;5.528;2023-03-05T03:59:52;6.72;;;1.70;;
43160;SDS011;40968;52.342;5.528;2023-03-05T04:02:19;7.55;;;2.10;;
43160;SDS011;40968;52.342;5.528;2023-03-05T04:04:47;8.20;;;2.22;;
43160;SDS011;40968;52.342;5.528;2023-03-05T04:07:14;15.70;;;2.25;;
43160;SDS011;40968;52.342;5.528;2023-03-05T04:09:40;8.93;;;1.70;;
43160;SDS011;40968;52.342;5.528;2023-03-05T04:12:07;9.73;;;1.77;;
43160;SDS011;40968;52.342;5.528;2023-03-05T04:14:34;12.73;;;2.35;;
43160;SDS011;40968;52.342;5.528;2023-03-05T04:17:01;9.57;;;1.77;;
43160;SDS011;40968;52.342;5.528;2023-03-05T04:19:28;9.32;;;1.77;;
43160;SDS011;40968;52.342;5.528;2023-03-05T04:21:56;11.90;;;3.25;;
43160;SDS011;40968;52.342;5.528;2023-03-05T04:24:22;4.90;;;1.75;;
43160;SDS011;40968;52.342;5.528;2023-03-05T04:26:49;7.20;;;1.90;;
43160;SDS011;40968;52.342;5.528;2023-03-05T04:29:16;10.18;;;1.80;;
43160;SDS011;40968;52.342;5.528;2023-03-05T04:31:42;9.90;;;2.40;;
43160;SDS011;40968;52.342;5.528;2023-03-05T04:34:09;6.47;;;1.80;;
43160;SDS011;40968;52.342;5.528;2023-03-05T04:36:35;8.35;;;1.90;;
43160;SDS011;40968;52.342;5.528;2023-03-05T04:39:03;6.45;;;1.80;;
43160;SDS011;40968;52.342;5.528;2023-03-05T04:41:30;7.70;;;2.22;;
43160;SDS011;40968;52.342;5.528;2023-03-05T04:43:57;6.78;;;1.55;;
43160;SDS011;40968;52.342;5.528;2023-03-05T04:46:23;8.57;;;2.22;;
43160;SDS011;40968;52.342;5.528;2023-03-05T04:48:50;10.73;;;2.45;;
43160;SDS011;40968;52.342;5.528;2023-03-05T04:51:16;6.72;;;1.98;;
43160;SDS011;40968;52.342;5.528;2023-03-05T04:53:43;9.18;;;2.10;;
43160;SDS011;40968;52.342;5.528;2023-03-05T04:56:11;16.33;;;2.92;;
43160;SDS011;40968;52.342;5.528;2023-03-05T04:58:38;6.93;;;2.03;;
43160;SDS011;40968;52.342;5.528;2023-03-05T05:01:05;11.63;;;2.15;;
43160;SDS011;40968;52.342;5.528;2023-03-05T05:03:32;5.05;;;2.20;;
43160;SDS011;40968;52.342;5.528;2023-03-05T05:05:59;6.53;;;1.73;;
43160;SDS011;40968;52.342;5.528;2023-03-05T05:08:26;11.05;;;2.15;;
43160;SDS011;40968;52.342;5.528;2023-03-05T05:10:57;11.80;;;2.00;;
43160;SDS011;40968;52.342;5.528;2023-03-05T05:13:26;10.90;;;2.13;;
43160;SDS011;40968;52.342;5.528;2023-03-05T05:15:53;4.78;;;2.30;;
43160;SDS011;40968;52.342;5.528;2023-03-05T05:18:20;7.80;;;2.33;;
43160;SDS011;40968;52.342;5.528;2023-03-05T05:20:47;7.93;;;2.75;;
43160;SDS011;40968;52.342;5.528;2023-03-05T05:23:14;12.50;;;2.55;;
43160;SDS011;40968;52.342;5.528;2023-03-05T05:25:41;4.60;;;2.00;;
43160;SDS011;40968;52.342;5.528;2023-03-05T05:28:08;7.07;;;2.33;;
43160;SDS011;40968;52.342;5.528;2023-03-05T05:30:36;8.35;;;2.38;;
43160;SDS011;40968;52.342;5.528;2023-03-05T05:33:04;6.70;;;2.20;;
43160;SDS011;40968;52.342;5.528;2023-03-05T05:35:30;6.53;;;2.17;;
43160;SDS011;40968;52.342;5.528;2023-03-05T05:37:57;8.73;;;1.95;;
43160;SDS011;40968;52.342;5.528;2023-03-05T05:40:24;8.68;;;2.38;;
43160;SDS011;40968;52.342;5.528;2023-03-05T05:42:50;5.25;;;2.25;;
43160;SDS011;40968;52.342;5.528;2023-03-05T05:45:17;6.30;;;2.17;;
43160;SDS011;40968;52.342;5.528;2023-03-05T05:47:45;10.98;;;2.50;;
43160;SDS011;40968;52.342;5.528;2023-03-05T05:50:11;7.95;;;2.72;;
43160;SDS011;40968;52.342;5.528;2023-03-05T05:52:38;6.13;;;2.33;;
43160;SDS011;40968;52.342;5.528;2023-03-05T05:55:05;17.40;;;3.05;;
43160;SDS011;40968;52.342;5.528;2023-03-05T05:57:32;8.82;;;2.42;;
43160;SDS011;40968;52.342;5.528;2023-03-05T05:59:59;8.50;;;2.33;;
43160;SDS011;40968;52.342;5.528;2023-03-05T06:02:26;8.10;;;2.80;;
43160;SDS011;40968;52.342;5.528;2023-03-05T06:04:55;12.55;;;3.10;;
43160;SDS011;40968;52.342;5.528;2023-03-05T06:07:22;9.70;;;2.88;;
43160;SDS011;40968;52.342;5.528;2023-03-05T06:09:48;8.35;;;3.20;;
43160;SDS011;40968;52.342;5.528;2023-03-05T06:12:15;10.02;;;3.22;;
43160;SDS011;40968;52.342;5.528;2023-03-05T06:14:42;13.07;;;3.53;;
43160;SDS011;40968;52.342;5.528;2023-03-05T06:17:08;10.10;;;3.28;;
43160;SDS011;40968;52.342;5.528;2023-03-05T06:19:35;19.63;;;3.55;;
43160;SDS011;40968;52.342;5.528;2023-03-05T06:22:03;13.85;;;3.55;;
43160;SDS011;40968;52.342;5.528;2023-03-05T06:24:29;15.50;;;3.28;;
43160;SDS011;40968;52.342;5.528;2023-03-05T06:26:56;17.92;;;4.22;;
43160;SDS011;40968;52.342;5.528;2023-03-05T06:29:22;18.55;;;4.20;;
43160;SDS011;40968;52.342;5.528;2023-03-05T06:31:49;15.50;;;4.03;;
43160;SDS011;40968;52.342;5.528;2023-03-05T06:34:15;15.43;;;3.97;;
43160;SDS011;40968;52.342;5.528;2023-03-05T06:36:42;13.07;;;4.13;;
43160;SDS011;40968;52.342;5.528;2023-03-05T06:39:10;17.08;;;5.05;;
43160;SDS011;40968;52.342;5.528;2023-03-05T06:41:37;13.85;;;4.68;;
43160;SDS011;40968;52.342;5.528;2023-03-05T06:44:03;13.10;;;4.38;;
43160;SDS011;40968;52.342;5.528;2023-03-05T06:46:32;15.75;;;4.43;;
43160;SDS011;40968;52.342;5.528;2023-03-05T06:49:01;17.23;;;4.65;;
43160;SDS011;40968;52.342;5.528;2023-03-05T06:51:28;17.92;;;4.55;;
43160;SDS011;40968;52.342;5.528;2023-03-05T06:53:58;13.38;;;4.53;;
43160;SDS011;40968;52.342;5.528;2023-03-05T06:56:27;19.75;;;4.25;;
43160;SDS011;40968;52.342;5.528;2023-03-05T06:58:54;9.93;;;3.72;;
43160;SDS011;40968;52.342;5.528;2023-03-05T07:01:21;12.32;;;3.80;;
43160;SDS011;40968;52.342;5.528;2023-03-05T07:03:48;9.65;;;3.63;;
43160;SDS011;40968;52.342;5.528;2023-03-05T07:06:16;11.40;;;3.10;;
43160;SDS011;40968;52.342;5.528;2023-03-05T07:08:43;10.65;;;2.85;;
43160;SDS011;40968;52.342;5.528;2023-03-05T07:11:10;20.88;;;3.20;;
43160;SDS011;40968;52.342;5.528;2023-03-05T07:13:39;9.60;;;2.80;;
43160;SDS011;40968;52.342;5.528;2023-03-05T07:16:06;10.23;;;2.60;;
43160;SDS011;40968;52.342;5.528;2023-03-05T07:18:34;8.88;;;2.38;;
43160;SDS011;40968;52.342;5.528;2023-03-05T07:21:01;11.23;;;2.25;;
43160;SDS011;40968;52.342;5.528;2023-03-05T07:23:28;9.63;;;2.45;;
43160;SDS011;40968;52.342;5.528;2023-03-05T07:25:55;6.65;;;2.33;;
43160;SDS011;40968;52.342;5.528;2023-03-05T07:28:21;5.22;;;2.20;;
43160;SDS011;40968;52.342;5.528;2023-03-05T07:30:55;8.80;;;2.53;;
43160;SDS011;40968;52.342;5.528;2023-03-05T07:33:22;3.70;;;1.75;;
43160;SDS011;40968;52.342;5.528;2023-03-05T07:35:49;8.43;;;2.42;;
43160;SDS011;40968;52.342;5.528;2023-03-05T07:38:16;9.40;;;1.83;;
43160;SDS011;40968;52.342;5.528;2023-03-05T07:40:42;6.40;;;1.60;;
43160;SDS011;40968;52.342;5.528;2023-03-05T07:43:09;5.47;;;0.98;;
43160;SDS011;40968;52.342;5.528;2023-03-05T07:45:37;5.70;;;1.58;;
43160;SDS011;40968;52.342;5.528;2023-03-05T07:48:06;5.00;;;1.20;;
43160;SDS011;40968;52.342;5.528;2023-03-05T07:50:33;6.57;;;1.38;;
43160;SDS011;40968;52.342;5.528;2023-03-05T07:53:00;4.68;;;1.13;;
43160;SDS011;40968;52.342;5.528;2023-03-05T07:55:27;6.50;;;1.70;;
43160;SDS011;40968;52.342;5.528;2023-03-05T07:57:53;5.88;;;1.58;;
43160;SDS011;40968;52.342;5.528;2023-03-05T08:00:20;4.90;;;1.13;;
43160;SDS011;40968;52.342;5.528;2023-03-05T08:02:47;6.68;;;2.10;;
43160;SDS011;40968;52.342;5.528;2023-03-05T08:05:15;3.95;;;1.42;;
43160;SDS011;40968;52.342;5.528;2023-03-05T08:07:42;5.30;;;1.80;;
43160;SDS011;40968;52.342;5.528;2023-03-05T08:10:09;4.88;;;1.23;;
43160;SDS011;40968;52.342;5.528;2023-03-05T08:12:36;5.10;;;1.10;;
43160;SDS011;40968;52.342;5.528;2023-03-05T08:15:03;3.33;;;1.00;;
43160;SDS011;40968;52.342;5.528;2023-03-05T08:17:30;11.32;;;2.05;;
43160;SDS011;40968;52.342;5.528;2023-03-05T08:19:57;6.10;;;1.38;;
43160;SDS011;40968;52.342;5.528;2023-03-05T08:22:25;3.58;;;1.35;;
43160;SDS011;40968;52.342;5.528;2023-03-05T08:24:52;2.97;;;1.20;;
43160;SDS011;40968;52.342;5.528;2023-03-05T08:27:19;5.28;;;1.50;;
43160;SDS011;40968;52.342;5.528;2023-03-05T08:29:45;10.30;;;1.48;;
43160;SDS011;40968;52.342;5.528;2023-03-05T08:32:12;2.28;;;1.10;;
43160;SDS011;40968;52.342;5.528;2023-03-05T08:34:38;5.70;;;1.38;;
43160;SDS011;40968;52.342;5.528;2023-03-05T08:37:05;6.15;;;1.27;;
43160;SDS011;40968;52.342;5.528;2023-03-05T08:39:34;4.28;;;1.30;;
43160;SDS011;40968;52.342;5.528;2023-03-05T08:42:01;4.60;;;1.00;;
43160;SDS011;40968;52.342;5.528;2023-03-05T08:44:28;1.80;;;0.90;;
43160;SDS011;40968;52.342;5.528;2023-03-05T08:46:55;3.70;;;0.90;;
43160;SDS011;40968;52.342;5.528;2023-03-05T08:49:21;2.28;;;0.85;;
43160;SDS011;40968;52.342;5.528;2023-03-05T08:51:48;1.45;;;0.90;;
43160;SDS011;40968;52.342;5.528;2023-03-05T08:54:15;6.05;;;0.75;;
43160;SDS011;40968;52.342;5.528;2023-03-05T08:56:43;4.10;;;0.90;;
43160;SDS011;40968;52.342;5.528;2023-03-05T08:59:10;2.95;;;0.80;;
43160;SDS011;40968;52.342;5.528;2023-03-05T09:01:36;4.25;;;1.40;;
43160;SDS011;40968;52.342;5.528;2023-03-05T09:04:03;4.30;;;0.88;;
43160;SDS011;40968;52.342;5.528;2023-03-05T09:06:29;4.30;;;1.02;;
43160;SDS011;40968;52.342;5.528;2023-03-05T09:08:56;4.13;;;1.08;;
43160;SDS011;40968;52.342;5.528;2023-03-05T09:11:22;2.25;;;0.80;;
43160;SDS011;40968;52.342;5.528;2023-03-05T09:13:50;4.72;;;1.13;;
43160;SDS011;40968;52.342;5.528;2023-03-05T09:16:18;3.67;;;1.00;;
43160;SDS011;40968;52.342;5.528;2023-03-05T09:18:45;6.25;;;1.08;;
43160;SDS011;40968;52.342;5.528;2023-03-05T09:21:13;4.22;;;1.30;;
43160;SDS011;40968;52.342;5.528;2023-03-05T09:23:41;2.30;;;0.95;;
43160;SDS011;40968;52.342;5.528;2023-03-05T09:26:09;3.83;;;0.98;;
43160;SDS011;40968;52.342;5.528;2023-03-05T09:28:37;3.45;;;0.93;;
43160;SDS011;40968;52.342;5.528;2023-03-05T09:31:05;4.00;;;0.77;;
43160;SDS011;40968;52.342;5.528;2023-03-05T09:33:33;6.55;;;1.75;;
43160;SDS011;40968;52.342;5.528;2023-03-05T09:36:00;6.55;;;1.27;;
43160;SDS011;40968;52.342;5.528;2023-03-05T09:38:27;1.13;;;0.75;;
43160;SDS011;40968;52.342;5.528;2023-03-05T09:40:56;7.50;;;1.15;;
43160;SDS011;40968;52.342;5.528;2023-03-05T09:43:31;2.35;;;1.10;;
43160;SDS011;40968;52.342;5.528;2023-03-05T09:46:14;2.88;;;0.77;;
43160;SDS011;40968;52.342;5.528;2023-03-05T09:48:49;2.75;;;0.65;;
43160;SDS011;40968;52.342;5.528;2023-03-05T09:51:20;6.53;;;0.95;;
43160;SDS011;40968;52.342;5.528;2023-03-05T09:53:50;2.55;;;0.80;;
43160;SDS011;40968;52.342;5.528;2023-03-05T09:56:23;4.20;;;0.93;;
43160;SDS011;40968;52.342;5.528;2023-03-05T09:58:53;2.35;;;0.93;;
43160;SDS011;40968;52.342;5.528;2023-03-05T10:01:25;9.30;;;1.30;;
43160;SDS011;40968;52.342;5.528;2023-03-05T10:03:58;2.35;;;0.85;;
43160;SDS011;40968;52.342;5.528;2023-03-05T10:06:29;3.28;;;1.10;;
43160;SDS011;40968;52.342;5.528;2023-03-05T10:09:01;3.63;;;0.80;;
43160;SDS011;40968;52.342;5.528;2023-03-05T10:11:37;6.68;;;1.25;;
43160;SDS011;40968;52.342;5.528;2023-03-05T10:14:10;4.05;;;1.00;;
43160;SDS011;40968;52.342;5.528;2023-03-05T10:16:44;3.65;;;1.08;;
43160;SDS011;40968;52.342;5.528;2023-03-05T10:19:27;3.00;;;0.82;;
43160;SDS011;40968;52.342;5.528;2023-03-05T10:22:10;4.53;;;0.82;;
43160;SDS011;40968;52.342;5.528;2023-03-05T10:24:45;5.22;;;0.82;;
43160;SDS011;40968;52.342;5.528;2023-03-05T10:27:20;4.40;;;1.30;;
43160;SDS011;40968;52.342;5.528;2023-03-05T10:29:59;3.72;;;0.90;;
43160;SDS011;40968;52.342;5.528;2023-03-05T10:32:37;9.20;;;1.92;;
43160;SDS011;40968;52.342;5.528;2023-03-05T10:35:22;6.82;;;1.10;;
43160;SDS011;40968;52.342;5.528;2023-03-05T10:38:10;2.85;;;0.80;;
43160;SDS011;40968;52.342;5.528;2023-03-05T10:40:46;2.67;;;1.00;;
43160;SDS011;40968;52.342;5.528;2023-03-05T10:43:19;4.80;;;1.10;;
43160;SDS011;40968;52.342;5.528;2023-03-05T10:45:52;7.57;;;1.25;;
43160;SDS011;40968;52.342;5.528;2023-03-05T10:48:24;3.45;;;0.80;;
43160;SDS011;40968;52.342;5.528;2023-03-05T10:50:57;3.35;;;0.95;;
43160;SDS011;40968;52.342;5.528;2023-03-05T10:53:27;4.90;;;0.77;;
43160;SDS011;40968;52.342;5.528;2023-03-05T10:55:59;3.45;;;1.15;;
43160;SDS011;40968;52.342;5.528;2023-03-05T10:58:26;2.97;;;0.93;;
43160;SDS011;40968;52.342;5.528;2023-03-05T11:00:57;4.15;;;1.08;;
43160;SDS011;40968;52.342;5.528;2023-03-05T11:03:27;4.68;;;1.00;;
43160;SDS011;40968;52.342;5.528;2023-03-05T11:06:12;4.00;;;0.95;;
43160;SDS011;40968;52.342;5.528;2023-03-05T11:08:39;1.58;;;0.80;;
43160;SDS011;40968;52.342;5.528;2023-03-05T11:11:10;3.95;;;1.10;;
43160;SDS011;40968;52.342;5.528;2023-03-05T11:13:55;5.00;;;0.93;;
43160;SDS011;40968;52.342;5.528;2023-03-05T11:16:24;6.20;;;1.13;;
43160;SDS011;40968;52.342;5.528;2023-03-05T11:21:43;3.28;;;1.20;;
43160;SDS011;40968;52.342;5.528;2023-03-05T11:24:11;2.45;;;0.57;;
43160;SDS011;40968;52.342;5.528;2023-03-05T11:26:47;7.47;;;1.27;;
43160;SDS011;40968;52.342;5.528;2023-03-05T11:29:17;5.43;;;0.93;;
43160;SDS011;40968;52.342;5.528;2023-03-05T11:31:46;5.32;;;1.05;;
43160;SDS011;40968;52.342;5.528;2023-03-05T11:37:05;2.08;;;0.80;;
43160;SDS011;40968;52.342;5.528;2023-03-05T11:39:44;1.63;;;0.80;;
43160;SDS011;40968;52.342;5.528;2023-03-05T11:42:12;3.67;;;0.80;;
43160;SDS011;40968;52.342;5.528;2023-03-05T11:44:44;4.15;;;0.77;;
43160;SDS011;40968;52.342;5.528;2023-03-05T11:47:16;8.23;;;0.95;;
43160;SDS011;40968;52.342;5.528;2023-03-05T11:49:49;2.10;;;0.65;;
43160;SDS011;40968;52.342;5.528;2023-03-05T11:52:20;3.55;;;0.70;;
43160;SDS011;40968;52.342;5.528;2023-03-05T11:54:53;3.45;;;0.90;;
43160;SDS011;40968;52.342;5.528;2023-03-05T11:57:25;5.65;;;0.93;;
43160;SDS011;40968;52.342;5.528;2023-03-05T11:59:54;2.85;;;1.13;;
43160;SDS011;40968;52.342;5.528;2023-03-05T12:02:24;5.72;;;1.15;;
43160;SDS011;40968;52.342;5.528;2023-03-05T12:04:54;4.53;;;1.15;;
43160;SDS011;40968;52.342;5.528;2023-03-05T12:07:25;3.67;;;1.08;;
43160;SDS011;40968;52.342;5.528;2023-03-05T12:09:59;4.80;;;0.90;;
43160;SDS011;40968;52.342;5.528;2023-03-05T12:12:29;3.65;;;1.20;;
43160;SDS011;40968;52.342;5.528;2023-03-05T12:15:05;4.05;;;1.02;;
43160;SDS011;40968;52.342;5.528;2023-03-05T12:17:52;13.73;;;2.20;;
43160;SDS011;40968;52.342;5.528;2023-03-05T12:20:29;2.53;;;0.90;;
43160;SDS011;40968;52.342;5.528;2023-03-05T12:23:08;4.43;;;1.00;;
43160;SDS011;40968;52.342;5.528;2023-03-05T12:25:44;6.50;;;1.13;;
43160;SDS011;40968;52.342;5.528;2023-03-05T12:28:12;7.20;;;0.88;;
43160;SDS011;40968;52.342;5.528;2023-03-05T12:30:53;4.57;;;1.00;;
43160;SDS011;40968;52.342;5.528;2023-03-05T12:33:30;1.98;;;0.80;;
43160;SDS011;40968;52.342;5.528;2023-03-05T12:51:01;5.90;;;1.05;;
43160;SDS011;40968;52.342;5.528;2023-03-05T12:53:29;4.25;;;0.98;;
43160;SDS011;40968;52.342;5.528;2023-03-05T12:55:57;7.45;;;1.08;;
43160;SDS011;40968;52.342;5.528;2023-03-05T12:58:32;8.75;;;1.10;;
43160;SDS011;40968;52.342;5.528;2023-03-05T13:01:03;5.47;;;1.13;;
43160;SDS011;40968;52.342;5.528;2023-03-05T13:03:42;4.45;;;1.00;;
43160;SDS011;40968;52.342;5.528;2023-03-05T13:08:57;4.03;;;1.00;;
43160;SDS011;40968;52.342;5.528;2023-03-05T13:11:26;3.35;;;0.85;;
43160;SDS011;40968;52.342;5.528;2023-03-05T13:13:55;3.20;;;0.90;;
43160;SDS011;40968;52.342;5.528;2023-03-05T13:16:23;3.80;;;1.40;;
43160;SDS011;40968;52.342;5.528;2023-03-05T13:18:51;6.28;;;1.10;;
43160;SDS011;40968;52.342;5.528;2023-03-05T13:21:19;2.30;;;0.80;;
43160;SDS011;40968;52.342;5.528;2023-03-05T13:23:49;4.53;;;1.38;;
43160;SDS011;40968;52.342;5.528;2023-03-05T13:26:24;3.00;;;0.77;;
43160;SDS011;40968;52.342;5.528;2023-03-05T13:29:02;3.10;;;0.70;;
43160;SDS011;40968;52.342;5.528;2023-03-05T13:31:35;2.85;;;0.70;;
43160;SDS011;40968;52.342;5.528;2023-03-05T13:34:07;5.13;;;0.90;;
43160;SDS011;40968;52.342;5.528;2023-03-05T13:36:39;1.80;;;0.70;;
43160;SDS011;40968;52.342;5.528;2023-03-05T13:39:16;1.52;;;0.70;;
43160;SDS011;40968;52.342;5.528;2023-03-05T13:41:55;1.80;;;0.68;;
43160;SDS011;40968;52.342;5.528;2023-03-05T13:44:24;2.42;;;0.57;;
43160;SDS011;40968;52.342;5.528;2023-03-05T13:46:53;9.10;;;1.00;;
43160;SDS011;40968;52.342;5.528;2023-03-05T13:49:32;2.30;;;0.60;;
43160;SDS011;40968;52.342;5.528;2023-03-05T13:51:59;2.50;;;0.68;;
43160;SDS011;40968;52.342;5.528;2023-03-05T13:54:27;1.88;;;0.68;;
43160;SDS011;40968;52.342;5.528;2023-03-05T13:56:56;3.20;;;0.60;;
43160;SDS011;40968;52.342;5.528;2023-03-05T13:59:25;5.10;;;0.80;;
43160;SDS011;40968;52.342;5.528;2023-03-05T14:01:54;2.38;;;0.80;;
43160;SDS011;40968;52.342;5.528;2023-03-05T14:04:22;6.88;;;0.98;;
43160;SDS011;40968;52.342;5.528;2023-03-05T14:06:52;9.02;;;1.25;;
43160;SDS011;40968;52.342;5.528;2023-03-05T14:09:22;3.97;;;0.93;;
43160;SDS011;40968;52.342;5.528;2023-03-05T14:11:51;5.10;;;0.80;;
43160;SDS011;40968;52.342;5.528;2023-03-05T14:14:20;1.23;;;0.88;;
43160;SDS011;40968;52.342;5.528;2023-03-05T14:16:48;3.58;;;0.70;;
43160;SDS011;40968;52.342;5.528;2023-03-05T14:19:30;2.05;;;0.90;;
43160;SDS011;40968;52.342;5.528;2023-03-05T14:21:59;3.47;;;1.17;;
43160;SDS011;40968;52.342;5.528;2023-03-05T14:24:27;2.53;;;0.80;;
43160;SDS011;40968;52.342;5.528;2023-03-05T14:26:55;4.00;;;1.25;;
43160;SDS011;40968;52.342;5.528;2023-03-05T14:29:25;3.00;;;0.50;;
43160;SDS011;40968;52.342;5.528;2023-03-05T14:31:55;8.60;;;0.90;;
43160;SDS011;40968;52.342;5.528;2023-03-05T14:34:24;5.57;;;0.98;;
43160;SDS011;40968;52.342;5.528;2023-03-05T14:36:54;11.02;;;1.02;;
43160;SDS011;40968;52.342;5.528;2023-03-05T14:39:30;4.35;;;0.88;;
43160;SDS011;40968;52.342;5.528;2023-03-05T14:44:51;3.58;;;0.98;;
43160;SDS011;40968;52.342;5.528;2023-03-05T14:47:18;2.88;;;0.93;;
43160;SDS011;40968;52.342;5.528;2023-03-05T14:49:44;2.47;;;0.95;;
43160;SDS011;40968;52.342;5.528;2023-03-05T14:52:12;6.47;;;1.20;;
43160;SDS011;40968;52.342;5.528;2023-03-05T14:54:40;15.13;;;1.40;;
43160;SDS011;40968;52.342;5.528;2023-03-05T14:57:09;3.78;;;1.02;;
43160;SDS011;40968;52.342;5.528;2023-03-05T14:59:40;3.20;;;0.90;;
43160;SDS011;40968;52.342;5.528;2023-03-05T15:02:10;1.60;;;1.05;;
43160;SDS011;40968;52.342;5.528;2023-03-05T15:04:40;2.45;;;0.80;;
43160;SDS011;40968;52.342;5.528;2023-03-05T15:07:08;3.28;;;1.05;;
43160;SDS011;40968;52.342;5.528;2023-03-05T15:09:40;2.97;;;0.80;;
43160;SDS011;40968;52.342;5.528;2023-03-05T15:12:07;2.53;;;0.70;;
43160;SDS011;40968;52.342;5.528;2023-03-05T15:14:35;6.00;;;0.90;;
43160;SDS011;40968;52.342;5.528;2023-03-05T15:17:02;7.18;;;0.90;;
43160;SDS011;40968;52.342;5.528;2023-03-05T15:19:30;3.55;;;0.80;;
43160;SDS011;40968;52.342;5.528;2023-03-05T15:21:56;2.35;;;1.02;;
43160;SDS011;40968;52.342;5.528;2023-03-05T15:24:23;5.53;;;0.90;;
43160;SDS011;40968;52.342;5.528;2023-03-05T15:26:50;2.75;;;0.88;;